Time;durP1;ratioP1;P1;durP2;ratioP2;P2;SDS_P1;SDS_P2;PMS_P1;PMS_P2;Temp;Humidity;BMP_temperature;BMP_pressure;BME280_temperature;BME280_humidity;BME280_pressure;Samples;Min_cycle;Max_cycle;Signal;HPM_P1;HPM_P2
2024/02/21 17:13:38;;;;;;;5.57;0.25;;;;;;;;;;4861120;29;20067;-86
2024/02/21 17:16:04;;;;;;;1.17;0.28;;;;;;;;;;4830225;29;20041;-85
2024/02/21 17:18:33;;;;;;;2.55;0.47;;;;;;;;;;4839822;29;20049;-89
2024/02/21 17:20:59;;;;;;;4.45;1.48;;;;;;;;;;4838853;29;20038;-87
2024/02/21 17:23:41;;;;;;;;;;;;;;;;;;;;;
2024/02/21 17:26:26;;;;;;;;;;;;;;;;;;;;;
2024/02/21 17:28:55;;;;;;;1.98;0.45;;;;;;;;;;4863429;29;20391;-87
2024/02/21 17:34:42;;;;;;;2.38;0.32;;;;;;;;;;4869642;24;20391;-88
2024/02/21 17:37:37;;;;;;;3.15;0.32;;;;;;;;;;4846911;29;20388;-87
2024/02/21 17:40:09;;;;;;;2.50;0.45;;;;;;;;;;4865872;24;20445;-88
2024/02/21 17:42:36;;;;;;;;;;;;;;;;;;4847108;29;20048;-86
2024/02/21 17:45:04;;;;;;;6.80;0.82;;;;;;;;;;4847514;29;19916;-86
2024/02/21 17:50:22;;;;;;;4.90;1.05;;;;;;;;;;4865092;29;20056;-90
2024/02/21 17:59:04;;;;;;;5.75;1.45;;;;;;;;;;4764244;30;20054;-84
2024/02/21 18:01:30;;;;;;;4.80;1.15;;;;;;;;;;4841005;29;20049;-86
2024/02/21 18:03:59;;;;;;;3.47;0.70;;;;;;;;;;4833475;29;20041;-85
2024/02/21 18:06:27;;;;;;;6.32;1.35;;;;;;;;;;4834410;29;20044;-85
2024/02/21 18:08:58;;;;;;;3.10;0.98;;;;;;;;;;4839978;29;20042;-85
2024/02/21 18:11:53;;;;;;;;;;;;;;;;;;;;;
2024/02/21 18:14:21;;;;;;;8.27;1.70;;;;;;;;;;4844615;29;20056;-84
2024/02/21 18:16:49;;;;;;;5.93;1.00;;;;;;;;;;4853912;29;20069;-83
2024/02/21 18:19:19;;;;;;;5.15;1.00;;;;;;;;;;4850722;29;20128;-82
2024/02/21 18:21:45;;;;;;;5.22;1.10;;;;;;;;;;4855073;29;20050;-81
2024/02/21 18:24:11;;;;;;;8.93;1.58;;;;;;;;;;4858856;29;20076;-82
2024/02/21 18:26:38;;;;;;;8.15;1.17;;;;;;;;;;4841889;29;20169;-81
2024/02/21 18:29:04;;;;;;;3.15;0.85;;;;;;;;;;4845337;29;20090;-81
2024/02/21 18:31:30;;;;;;;6.88;1.90;;;;;;;;;;4856145;29;20508;-82
2024/02/21 18:33:58;;;;;;;9.43;2.63;;;;;;;;;;4857812;29;20053;-82
2024/02/21 18:36:24;;;;;;;12.20;2.00;;;;;;;;;;4855031;29;20090;-82
2024/02/21 18:38:50;;;;;;;7.38;1.88;;;;;;;;;;4857604;29;20053;-82
2024/02/21 18:41:16;;;;;;;6.95;2.10;;;;;;;;;;4844210;29;20579;-84
2024/02/21 18:43:46;;;;;;;12.75;4.10;;;;;;;;;;4851485;29;20121;-84
2024/02/21 18:47:10;;;;;;;;;;;;;;;;;;;;;
2024/02/21 18:49:04;;;;;;;11.05;2.85;;;;;;;;;;4812999;29;20042;-85
2024/02/21 18:51:49;;;;;;;;;;;;;;;;;;;;;
2024/02/21 18:54:22;;;;;;;9.07;3.10;;;;;;;;;;4855608;29;20127;-85
2024/02/21 18:56:48;;;;;;;10.63;2.22;;;;;;;;;;4845480;29;20052;-85
2024/02/21 19:02:21;;;;;;;5.40;1.27;;;;;;;;;;4858988;29;20072;-87
2024/02/21 19:07:52;;;;;;;5.78;1.25;;;;;;;;;;4832360;29;20042;-86
2024/02/21 19:10:22;;;;;;;4.17;1.10;;;;;;;;;;4838758;29;20053;-86
2024/02/21 19:12:56;;;;;;;4.50;1.42;;;;;;;;;;4822687;29;20038;-86
2024/02/21 19:15:22;;;;;;;8.20;1.25;;;;;;;;;;4825648;29;20048;-86
2024/02/21 19:17:51;;;;;;;8.02;2.30;;;;;;;;;;4838489;29;20046;-86
2024/02/21 19:20:19;;;;;;;19.35;2.65;;;;;;;;;;4823905;29;20046;-86
2024/02/21 19:22:46;;;;;;;6.50;2.00;;;;;;;;;;4838383;29;20053;-86
2024/02/21 19:25:21;;;;;;;4.63;1.50;;;;;;;;;;4834409;29;20045;-86
2024/02/21 19:28:11;;;;;;;6.22;1.27;;;;;;;;;;4822968;29;20042;-86
2024/02/21 19:30:47;;;;;;;7.85;2.08;;;;;;;;;;4830010;29;20050;-86
2024/02/21 19:33:34;;;;;;;5.50;1.48;;;;;;;;;;4840975;29;20037;-86
2024/02/21 19:36:09;;;;;;;8.73;2.17;;;;;;;;;;4832251;29;20075;-87
2024/02/21 19:38:55;;;;;;;7.75;1.75;;;;;;;;;;4823072;29;20473;-85
2024/02/21 19:41:29;;;;;;;5.95;1.95;;;;;;;;;;4845508;29;20515;-86
2024/02/21 19:44:06;;;;;;;7.22;2.15;;;;;;;;;;4859996;29;20747;-86
2024/02/21 19:50:24;;;;;;;;;;;;;;;;;;;;;
2024/02/21 19:53:02;;;;;;;14.35;3.25;;;;;;;;;;4780538;30;20047;-86
2024/02/21 20:00:00;;;;;;;;;;;;;;;;;;;;;
2024/02/21 20:02:25;;;;;;;14.07;2.85;;;;;;;;;;4713152;30;20056;-87
2024/02/21 20:11:50;;;;;;;11.15;2.92;;;;;;;;;;4856578;29;20077;-86
2024/02/21 20:14:39;;;;;;;;;;;;;;;;;;;;;
2024/02/21 20:17:11;;;;;;;8.60;2.08;;;;;;;;;;4849335;29;20045;-86
2024/02/21 20:22:53;;;;;;;4.57;1.77;;;;;;;;;;4833005;29;20112;-86
2024/02/21 20:25:32;;;;;;;9.50;2.25;;;;;;;;;;4842634;29;20073;-86
2024/02/21 20:28:18;;;;;;;4.97;1.50;;;;;;;;;;4831828;29;20054;-86
2024/02/21 20:30:52;;;;;;;4.10;1.05;;;;;;;;;;4825731;29;20050;-85
2024/02/21 20:34:25;;;;;;;;;;;;;;;;;;;;;
2024/02/21 21:24:19;;;;;;;;;;;;;;;;;;;;;
2024/02/21 21:30:07;;;;;;;7.45;2.25;;;;;;;;;;4732342;30;20055;-85
2024/02/21 21:32:57;;;;;;;8.93;1.98;;;;;;;;;;4718364;30;20064;-86
2024/02/21 21:35:48;;;;;;;10.18;2.60;;;;;;;;;;4778514;29;20402;-86
2024/02/21 21:38:26;;;;;;;7.05;1.77;;;;;;;;;;4801470;29;20090;-85
2024/02/21 21:41:30;;;;;;;;;;;;;;;;;;;;;
2024/02/21 21:44:36;;;;;;;;;;;;;;;;;;;;;
2024/02/21 21:50:23;;;;;;;12.88;2.47;;;;;;;;;;4855981;29;20549;-85
2024/02/21 21:53:12;;;;;;;;;;;;;;;;;;;;;
2024/02/21 22:08:17;;;;;;;10.18;2.92;;;;;;;;;;4858776;29;20052;-85
2024/02/21 22:11:04;;;;;;;8.23;3.42;;;;;;;;;;4842323;29;20484;-86
2024/02/21 22:23:20;;;;;;;10.38;2.90;;;;;;;;;;4857476;29;20103;-86
2024/02/21 22:26:09;;;;;;;7.75;3.25;;;;;;;;;;4815533;29;20056;-86
2024/02/21 22:37:50;;;;;;;7.95;2.75;;;;;;;;;;4829497;29;20222;-85
2024/02/21 22:40:18;;;;;;;6.60;2.80;;;;;;;;;;4822321;29;20499;-84
2024/02/21 22:42:47;;;;;;;10.55;3.47;;;;;;;;;;4820703;29;20440;-85
2024/02/21 22:45:19;;;;;;;8.20;2.75;;;;;;;;;;4821810;29;20504;-84
2024/02/21 22:47:47;;;;;;;17.45;3.42;;;;;;;;;;4821239;29;20048;-85
2024/02/21 22:50:13;;;;;;;9.15;3.33;;;;;;;;;;4821698;29;20045;-86
2024/02/21 22:52:49;;;;;;;9.13;2.15;;;;;;;;;;4820939;29;20108;-86
2024/02/21 22:55:59;;;;;;;8.60;3.55;;;;;;;;;;4823406;29;20148;-87
2024/02/21 22:58:25;;;;;;;6.90;2.42;;;;;;;;;;4792829;29;20089;-86
2024/02/21 23:01:21;;;;;;;6.18;1.98;;;;;;;;;;4806237;29;20129;-85
2024/02/21 23:03:50;;;;;;;4.93;1.95;;;;;;;;;;4836669;29;20140;-86
2024/02/21 23:06:35;;;;;;;5.10;1.90;;;;;;;;;;4853019;29;20044;-86
2024/02/21 23:09:03;;;;;;;10.25;3.17;;;;;;;;;;4841167;29;20126;-86
2024/02/21 23:11:34;;;;;;;9.75;1.83;;;;;;;;;;4848180;29;20132;-86
2024/02/21 23:14:08;;;;;;;3.90;1.85;;;;;;;;;;4859688;29;20053;-86
2024/02/21 23:16:46;;;;;;;4.53;1.80;;;;;;;;;;4853533;29;20399;-86
2024/02/21 23:19:18;;;;;;;11.20;1.88;;;;;;;;;;4857216;29;20053;-86
2024/02/21 23:21:44;;;;;;;4.75;1.70;;;;;;;;;;4853391;29;20045;-86
2024/02/21 23:24:20;;;;;;;4.20;0.93;;;;;;;;;;4845437;29;20067;-85
2024/02/21 23:26:46;;;;;;;4.13;1.13;;;;;;;;;;4855092;29;20041;-86
2024/02/21 23:29:15;;;;;;;5.55;1.48;;;;;;;;;;4860890;29;20068;-86
2024/02/21 23:31:52;;;;;;;3.42;0.95;;;;;;;;;;4860367;29;20856;-86
2024/02/21 23:37:29;;;;;;;4.47;1.77;;;;;;;;;;4861974;29;20040;-87
2024/02/21 23:40:02;;;;;;;7.55;1.85;;;;;;;;;;4859952;29;20041;-86
2024/02/21 23:42:35;;;;;;;6.60;1.67;;;;;;;;;;4857171;29;20075;-86
2024/02/21 23:45:20;;;;;;;10.40;2.35;;;;;;;;;;4860195;29;20059;-86
2024/02/21 23:47:54;;;;;;;7.65;1.60;;;;;;;;;;4809444;29;20565;-86
2024/02/21 23:50:25;;;;;;;4.53;1.70;;;;;;;;;;4803530;29;20519;-86
2024/02/21 23:53:07;;;;;;;;;;;;;;;;;;;;;
2024/02/21 23:55:54;;;;;;;;;;;;;;;;;;;;;
2024/02/21 23:58:23;;;;;;;7.90;2.50;;;;;;;;;;4813718;29;20507;-86
